Station: Noarlunga

  Atmospheric Gas Attenuation - ITU Rec 676-11   --------------- db/100km ---------------
Date Time Temp RH % AH g/m3 Dew Point Wind Direction Speed kph Gust kph Barometer mB Rainfall Since 9am 24GHz 47GHz 76GHz 122GHz 134GHz 241GHz
17 02:20 8.5 93 7.94 7.4 0 0 1013.1 0 18.4 26.4 39.7 104.3 96.1 329.9
17 02:10 8.6 91 7.82 7.3 0 0 1013.1 0 18.2 26.1 39.2 102.8 94.4 323.6
17 02:00 8.9 89 7.8 7.2 4 7 1013.1 0 18.1 26.0 39.0 102.2 93.7 321.4
17 01:50 9.8 88 8.17 7.9 7 7 1013.1 0 18.9 26.4 40.0 105.1 97.7 335.4
17 01:40 9.9 88 8.22 8 9 11 1013.1 0 19.0 26.4 40.2 105.5 98.2 337.4
17 01:30 9.8 89 8.26 8.1 11 15 1013.1 0 19.1 26.5 40.4 106.1 98.9 339.7
17 01:20 9.5 90 8.19 7.9 11 13 1013.1 0 18.9 26.5 40.3 105.7 98.3 337.7
17 01:10 9.3 91 8.18 7.9 11 13 1013.1 0 18.9 26.5 40.3 105.9 98.5 338.1
17 01:00 9.6 90 8.25 8 9 13 1013.1 0 19.0 26.6 40.5 106.3 99.0 340.1
17 00:50 9.8 90 8.35 8.2 11 13 1013.1 0 19.2 26.7 40.8 107.1 100.2 344.1
17 00:40 9.6 91 8.34 8.2 11 15 1013.1 0 19.2 26.7 40.9 107.3 100.3 344.5
17 00:30 9.6 91 8.34 8.2 9 13 1013.1 0 19.2 26.7 40.9 107.3 100.3 344.5
17 00:20 9.6 91 8.34 8.2 9 9 1013.1 0 19.2 26.7 40.9 107.3 100.3 344.5
17 00:10 9.8 90 8.35 8.2 11 13 1013.1 0 19.2 26.7 40.8 107.1 100.2 344.1
17 00:00 9.8 91 8.45 8.4 9 11 1013.1 0 19.5 26.8 41.2 108.2 101.5 348.9
16 23:50 10 91 8.55 8.6 9 13 1013.1 0 19.7 26.9 41.5 109.1 102.7 352.9
16 23:40 10.1 90 8.51 8.5 9 11 1013.1 0 19.6 26.8 41.3 108.5 102.0 350.5
16 23:30 9.9 91 8.5 8.5 9 11 1013.1 0 19.6 26.9 41.4 108.6 102.1 350.9
16 23:20 10.2 90 8.57 8.6 9 11 1013.1 0 19.7 26.9 41.5 109.0 102.7 353.0
16 23:10 10.3 90 8.62 8.7 9 11 1013.1 0 19.8 27.0 41.7 109.4 103.2 354.9
16 23:00 10.4 90 8.68 8.8 9 13 1013.1 0 19.9 27.0 41.9 110.0 103.9 357.4
16 22:50 10.6 89 8.69 8.8 9 11 1013.1 0 19.9 27.0 41.8 109.8 103.8 357.0
16 22:40 10.7 89 8.74 8.9 9 11 1013.1 0 20.0 27.0 42.0 110.2 104.4 358.9
16 22:30 10.8 89 8.8 9.1 11 15 1013.1 0 20.2 27.1 42.2 110.8 105.1 361.4
16 22:20 11 89 8.91 9.2 9 11 1013.1 0 20.4 27.2 42.5 111.7 106.3 365.8
16 22:10 10.9 89 8.85 9.1 11 15 1013.1 0 20.3 27.2 42.3 111.2 105.6 363.3
16 22:00 11.1 89 8.97 9.4 13 19 1013.1 0 20.5 27.3 42.7 112.2 107.0 368.2
16 21:50 11.1 89 8.97 9.3 15 19 1013.1 0 20.5 27.3 42.7 112.2 107.0 368.2
16 21:40 10.9 90 8.95 9.3 13 17 1013.1 0 20.5 27.3 42.8 112.3 107.0 368.2
16 21:30 10.9 90 8.95 9.3 11 17 1013.1 0 20.5 27.3 42.8 112.3 107.0 368.2
16 21:20 10.8 90 8.9 9.2 11 17 1013.1 0 20.4 27.3 42.6 111.9 106.4 366.2
16 21:10 10.9 90 8.95 9.3 13 13 1013.1 0 20.5 27.3 42.8 112.3 107.0 368.2
16 21:00 11 89 8.91 9.3 11 15 1013.1 0 20.4 27.2 42.5 111.7 106.3 365.8
16 20:50 11.2 89 9.02 9.4 11 15 1013.1 0 20.6 27.4 42.9 112.7 107.6 370.2
16 20:40 11.2 89 9.02 9.4 13 17 1013.1 0 20.6 27.4 42.9 112.7 107.6 370.2
16 20:30 11.2 89 9.02 9.5 13 17 1013.1 0 20.6 27.4 42.9 112.7 107.6 370.2
16 20:20 11.3 89 9.08 9.5 13 15 1013.1 0 20.7 27.4 43.1 113.2 108.2 372.6
16 20:10 11.2 90 9.12 9.7 13 15 1013.1 0 20.8 27.5 43.3 113.8 108.9 375.0
16 20:00 10.6 92 8.98 9.4 11 17 1013.1 0 20.6 27.5 43.0 113.1 107.8 371.1
16 19:50 10.6 92 8.98 9.3 13 17 1013.1 0 20.6 27.5 43.0 113.1 107.8 371.1
16 19:40 10.4 93 8.97 9.3 13 17 1013.1 0 20.6 27.5 43.1 113.3 108.0 371.6
16 19:30 10.2 93 8.85 9.1 11 17 1013.1 0 20.3 27.4 42.7 112.2 106.6 366.6
16 19:20 10.1 93 8.8 9.1 9 11 1013.1 0 20.2 27.3 42.5 111.8 106.0 364.6
16 19:10 9.9 93 8.69 8.9 7 9 1013.1 0 20.0 27.2 42.2 110.8 104.8 360.2
16 19:00 10 94 8.83 9.1 9 13 1013.1 0 20.3 27.4 42.7 112.2 106.6 366.6
16 18:50 10.2 93 8.85 9.2 11 15 1013.1 0 20.3 27.4 42.7 112.2 106.6 366.6
16 18:40 10 93 8.74 8.9 9 11 1013.1 0 20.1 27.3 42.3 111.2 105.3 362.2
16 18:30 10.1 94 8.89 9.2 6 7 1013.1 0 20.4 27.5 42.9 112.8 107.3 369.1
16 18:20 9.9 93 8.69 8.8 7 7 1013.1 0 20.0 27.2 42.2 110.8 104.8 360.2
16 18:10 10.2 93 8.85 9.1 7 7 1013.1 0 20.3 27.4 42.7 112.2 106.6 366.6
16 18:00 10.4 92 8.87 9.2 7 9 1013.1 0 20.3 27.4 42.7 112.1 106.6 366.7
16 17:50 10.6 91 8.88 9.2 6 7 1013.1 0 20.3 27.3 42.6 111.9 106.4 366.2
16 17:40 10.6 89 8.69 8.8 7 7 1013.1 0 19.9 27.0 41.8 109.8 103.8 357.0
16 17:30 11.3 88 8.98 9.4 0 0 1013.1 0 20.5 27.3 42.7 112.1 106.9 367.7
16 17:20 11.6 87 9.04 9.5 0 0 1013.1 0 20.6 27.3 42.7 112.3 107.3 369.2
16 17:10 11.9 85 9 9.4 0 0 1013.1 0 20.5 27.1 42.4 111.4 106.3 365.9
16 17:00 12.4 83 9.07 9.6 0 0 1013.1 0 20.7 27.1 42.4 111.5 106.6 366.9
16 16:50 12.7 82 9.13 9.7 0 0 1013.1 0 20.8 27.1 42.5 111.7 107.0 368.3
16 16:40 12.9 81 9.13 9.7 0 2 1013.1 0 20.8 27.0 42.4 111.4 106.7 367.4
16 16:30 12.9 80 9.02 9.5 4 7 1013.1 0 20.5 26.8 42.0 110.2 105.2 362.2
16 16:20 13 80 9.07 9.6 4 4 1013.1 0 20.6 26.9 42.1 110.6 105.7 364.1
16 16:10 13.2 79 9.07 9.6 7 9 1013.1 0 20.6 26.8 42.0 110.4 105.5 363.1
16 16:00 13.1 79 9.02 9.5 7 9 1013.1 0 20.5 26.8 41.9 109.9 104.9 361.2
16 15:50 13.3 78 9.01 9.5 7 7 1013.1 0 20.5 26.7 41.7 109.6 104.5 359.8
16 15:40 13.5 76 8.89 9.3 7 9 1013.1 0 20.2 26.4 41.1 108.0 102.6 353.3
16 15:30 13.4 76 8.84 9.3 7 11 1013.1 0 20.1 26.4 41.0 107.6 102.1 351.4
16 15:20 13.5 75 8.77 9.1 7 11 1013.1 0 20.0 26.3 40.6 106.7 101.0 347.7
16 15:10 13.4 73 8.49 8.6 6 7 1013.1 0 19.4 25.8 39.5 103.8 97.4 335.1
16 15:00 13.8 73 8.7 9 6 9 1013.1 0 19.8 26.1 40.2 105.5 99.7 343.1
16 14:50 13.7 74 8.76 9.1 6 6 1013.1 0 19.9 26.2 40.5 106.3 100.6 346.3
16 14:40 13.7 72 8.53 8.7 7 9 1013.1 0 19.4 25.8 39.6 103.8 97.6 335.6
16 14:30 13.8 72 8.58 8.8 9 13 1013.1 0 19.5 25.9 39.7 104.2 98.1 337.5
16 14:20 13.9 72 8.63 8.9 7 7 1013.1 0 19.6 25.9 39.9 104.6 98.7 339.4
16 14:10 13.9 70 8.39 8.5 7 9 1013.1 0 19.1 25.5 38.9 102.1 95.5 328.4
16 14:00 14.3 70 8.6 8.9 7 13 1013.1 0 19.6 25.7 39.5 103.8 97.8 336.3
16 13:50 14.4 69 8.53 8.8 9 9 1013.1 0 19.4 25.6 39.2 102.9 96.7 332.7
16 13:40 14.4 67 8.28 8.5 6 7 1013.1 0 18.9 25.2 38.2 100.3 93.5 321.3
16 13:30 14.2 68 8.3 8.4 6 9 1013.1 0 18.9 25.3 38.4 100.7 94.0 323.0
16 13:20 14.1 67 8.13 8.2 6 7 1013.1 0 18.6 25.1 37.8 99.1 91.9 315.7
16 13:10 14.2 67 8.18 8.3 7 7 1013.1 0 18.7 25.1 37.9 99.5 92.4 317.6
16 13:00 14.6 67 8.38 8.5 6 11 1013.1 0 19.1 25.3 38.5 101.1 94.5 325.0
16 12:50 14.7 66 8.31 8.4 6 7 1013.1 0 18.9 25.2 38.2 100.2 93.5 321.4
16 12:40 14.4 65 8.04 7.9 6 6 1013.1 0 18.4 24.8 37.3 97.8 90.4 310.5
16 12:30 14.3 64 7.86 7.6 6 9 1013.1 0 18.0 24.6 36.6 96.0 88.2 302.8
16 12:20 14.1 65 7.89 7.6 7 9 1013.1 0 18.1 24.7 36.8 96.6 88.8 304.9
16 12:10 14.2 65 7.94 7.7 7 9 1013.1 0 18.2 24.7 37.0 97.0 89.3 306.7
16 12:00 14.3 65 7.99 7.8 7 11 1013.1 0 18.3 24.8 37.1 97.4 89.8 308.6
16 11:50 14.1 64 7.77 7.4 9 9 1013.1 0 17.8 24.5 36.4 95.3 87.3 299.5
16 11:40 14.4 63 7.79 7.4 9 9 1013.1 0 17.8 24.4 36.3 95.2 87.2 299.3
16 11:30 14.5 63 7.84 7.5 7 11 1013.1 0 17.9 24.5 36.5 95.6 87.7 301.1
16 11:20 14.4 63 7.79 7.6 2 4 1013.1 0 17.8 24.4 36.3 95.2 87.2 299.3
16 11:10 14.5 63 7.84 7.7 4 4 1013.1 0 17.9 24.5 36.5 95.6 87.7 301.1
16 11:00 14.1 66 8.01 7.9 4 6 1013.1 0 18.3 24.9 37.3 97.8 90.3 310.3
16 10:50 13.9 62 7.43 6.7 4 4 1013.1 0 17.1 24.0 35.2 92.1 83.2 285.1
16 10:40 13.4 61 7.09 6.2 2 4 1013.1 0 16.4 23.6 34.1 89.2 79.4 271.9
16 10:30 13.3 61 7.05 5.9 4 6 1013.1 0 16.3 23.6 34.0 88.9 79.0 270.5
16 10:20 13 62 7.03 5.9 4 4 1013.1 0 16.3 23.6 34.0 89.0 79.0 270.6
16 10:10 12.6 63 6.97 5.9 4 4 1013.1 0 16.2 23.6 34.0 88.8 78.7 269.3
16 10:00 12.1 68 7.29 6.4 4 4 1013.1 0 16.9 24.3 35.4 92.7 83.3 285.3
16 09:50 11.9 74 7.84 7.4 4 4 1013.1 0 18.1 25.2 37.7 98.8 90.7 311.2

Last Refresh: 17-Jul-2020 02:31:46

Most of the information presented on this site is sourced from the Bureau of Meteorology.  Copyright in all material sourced from the Bureau of Meteorology resides with the Commonwealth of Australia.